createdAt,value
2023-02-20T00:02:10.578Z,99919.22
2023-02-20T00:07:02.258Z,99913.00
2023-02-20T00:11:53.967Z,99894.91
2023-02-20T00:16:48.780Z,99903.03
2023-02-20T00:21:51.860Z,99896.13
2023-02-20T00:26:52.989Z,99902.38
2023-02-20T00:31:50.462Z,99906.50
2023-02-20T00:36:42.121Z,99907.72
2023-02-20T00:41:33.780Z,99917.31
2023-02-20T00:46:25.506Z,99917.50
2023-02-20T00:51:17.696Z,99917.31
2023-02-20T00:56:10.741Z,99907.53
2023-02-20T01:01:02.835Z,99909.59
2023-02-20T01:05:54.684Z,99893.41
2023-02-20T01:10:46.361Z,99886.31
2023-02-20T01:15:38.089Z,99889.41
2023-02-20T01:20:29.807Z,99882.34
2023-02-20T01:25:21.586Z,99878.81
2023-02-20T01:30:13.501Z,99880.88
2023-02-20T01:35:06.391Z,99866.53
2023-02-20T01:39:58.170Z,99845.13
2023-02-20T01:44:50.795Z,99834.72
2023-02-20T01:49:49.872Z,99820.75
2023-02-20T01:54:46.166Z,99833.44
2023-02-20T01:59:41.444Z,99841.78
2023-02-20T02:04:36.245Z,99844.94
2023-02-20T02:09:34.969Z,99845.59
2023-02-20T02:14:26.992Z,99840.06
2023-02-20T02:19:39.780Z,99830.97
2023-02-20T02:24:38.558Z,99841.78
2023-02-20T02:30:07.944Z,99820.19
2023-02-20T02:35:27.303Z,99837.91
2023-02-20T02:40:42.003Z,99821.47
2023-02-20T02:46:01.679Z,99818.16
2023-02-20T02:50:57.421Z,99807.13
2023-02-20T02:55:49.333Z,99811.50
2023-02-20T03:00:51.104Z,99798.19
2023-02-20T03:06:16.696Z,99790.94
2023-02-20T03:11:21.282Z,99790.53
2023-02-20T03:16:18.324Z,99795.06
2023-02-20T03:21:16.701Z,99767.25
2023-02-20T03:26:19.026Z,99797.66
2023-02-20T03:31:17.890Z,99773.53
2023-02-20T03:36:33.144Z,99767.94
2023-02-20T03:41:47.049Z,99774.53
2023-02-20T03:46:40.949Z,99768.28
2023-02-20T03:51:32.863Z,99754.13
2023-02-20T03:56:30.829Z,99753.09
2023-02-20T04:01:26.180Z,99753.31
2023-02-20T04:06:20.889Z,99757.25
2023-02-20T04:11:23.104Z,99783.66
2023-02-20T04:16:15.505Z,99768.28
2023-02-20T04:21:28.161Z,99731.47
2023-02-20T04:26:21.470Z,99726.69
2023-02-20T04:31:16.002Z,99743.97
2023-02-20T04:36:08.219Z,99734.19
2023-02-20T04:40:59.938Z,99752.09
2023-02-20T04:45:51.771Z,99747.69
2023-02-20T04:50:43.586Z,99752.09
2023-02-20T04:55:36.549Z,99759.53
2023-02-20T05:00:28.361Z,99761.63
2023-02-20T05:05:23.263Z,99766.19
2023-02-20T05:10:22.264Z,99764.94
2023-02-20T05:15:14.505Z,99776.22
2023-02-20T05:20:07.318Z,99765.84
2023-02-20T05:24:59.165Z,99775.22
2023-02-20T05:29:54.619Z,99781.66
2023-02-20T05:34:46.751Z,99763.41
2023-02-20T05:39:38.496Z,99758.41
2023-02-20T05:44:30.294Z,99763.00
2023-02-20T05:49:23.019Z,99766.50
2023-02-20T05:54:14.732Z,99762.56
2023-02-20T05:59:06.428Z,99756.31
2023-02-20T06:03:58.599Z,99749.88
2023-02-20T06:08:50.947Z,99745.50
2023-02-20T06:13:44.095Z,99752.38
2023-02-20T06:18:42.107Z,99767.78
2023-02-20T06:23:33.750Z,99761.31
2023-02-20T06:28:25.548Z,99768.00
2023-02-20T06:33:17.346Z,99762.19
2023-02-20T06:38:08.965Z,99760.75
2023-02-20T06:43:00.609Z,99744.72
2023-02-20T06:47:52.536Z,99736.81
2023-02-20T06:52:44.215Z,99737.84
2023-02-20T06:57:36.001Z,99738.44
2023-02-20T07:02:27.768Z,99744.69
2023-02-20T07:07:19.458Z,99744.06
2023-02-20T07:12:11.229Z,99745.94
2023-02-20T07:17:02.934Z,99739.88
2023-02-20T07:21:54.711Z,99744.69
2023-02-20T07:26:47.635Z,99724.53
2023-02-20T07:31:39.572Z,99733.44
2023-02-20T07:36:31.475Z,99737.84
2023-02-20T07:41:24.707Z,99738.44
2023-02-20T07:46:18.396Z,99744.47
2023-02-20T07:51:11.771Z,99734.94
2023-02-20T07:56:05.634Z,99751.78
2023-02-20T08:00:57.384Z,99758.03
2023-02-20T08:05:50.072Z,99732.03
2023-02-20T08:10:41.867Z,99733.69
2023-02-20T08:15:33.659Z,99735.16
2023-02-20T08:20:25.434Z,99758.50
2023-02-20T08:25:18.323Z,99768.28
2023-02-20T08:30:16.822Z,99786.78
2023-02-20T08:35:09.093Z,99788.66
2023-02-20T08:40:00.916Z,99786.81
2023-02-20T08:44:52.779Z,99773.06
2023-02-20T08:49:47.382Z,99783.66
2023-02-20T08:54:39.340Z,99778.03
2023-02-20T08:59:33.846Z,99784.25
2023-02-20T09:04:25.576Z,99783.22
2023-02-20T09:09:17.329Z,99787.16
2023-02-20T09:14:09.978Z,99784.41
2023-02-20T09:19:01.727Z,99776.66
2023-02-20T09:23:55.014Z,99776.41
2023-02-20T09:28:51.788Z,99784.06
2023-02-20T09:33:51.174Z,99790.28
2023-02-20T09:38:43.164Z,99799.28
2023-02-20T09:43:53.062Z,99786.31
2023-02-20T09:49:15.774Z,99779.63
2023-02-20T09:54:21.003Z,99773.34
2023-02-20T09:59:17.863Z,99771.81
2023-02-20T10:04:21.175Z,99772.19
2023-02-20T10:09:15.236Z,99768.19
2023-02-20T10:14:10.090Z,99773.53
2023-02-20T10:19:19.145Z,99770.75
2023-02-20T10:24:40.189Z,99764.06
2023-02-20T10:29:37.346Z,99766.78
2023-02-20T10:34:58.893Z,99787.16
2023-02-20T10:39:57.021Z,99789.81
2023-02-20T10:45:03.431Z,99805.69
2023-02-20T10:50:19.519Z,99795.69
2023-02-20T10:55:17.056Z,99796.94
2023-02-20T11:00:17.837Z,99777.94
2023-02-20T11:05:12.939Z,99768.47
2023-02-20T11:10:05.667Z,99778.53
2023-02-20T11:15:00.783Z,99767.94
2023-02-20T11:19:57.952Z,99778.47
2023-02-20T11:24:49.590Z,99765.03
2023-02-20T11:29:54.367Z,99754.16
2023-02-20T11:34:46.338Z,99763.50
2023-02-20T11:39:45.962Z,99766.81
2023-02-20T11:44:38.306Z,99757.81
2023-02-20T11:49:30.531Z,99766.66
2023-02-20T11:54:29.615Z,99749.56
2023-02-20T11:59:36.485Z,99733.41
2023-02-20T12:04:28.562Z,99747.09
2023-02-20T12:09:28.011Z,99741.69
2023-02-20T12:14:20.629Z,99743.94
2023-02-20T12:19:25.847Z,99752.19
2023-02-20T12:24:43.696Z,99759.75
2023-02-20T12:29:46.204Z,99749.00
2023-02-20T12:34:49.839Z,99744.81
2023-02-20T12:40:20.033Z,99734.25
2023-02-20T12:45:37.529Z,99719.09
2023-02-20T12:50:48.603Z,99723.50
2023-02-20T12:55:44.996Z,99704.97
2023-02-20T13:01:00.259Z,99707.22
2023-02-20T13:05:53.293Z,99714.38
2023-02-20T13:10:58.528Z,99694.50
2023-02-20T13:16:10.221Z,99683.03
2023-02-20T13:21:12.210Z,99679.69
2023-02-20T13:26:35.903Z,99686.81
2023-02-20T13:31:37.629Z,99673.19
2023-02-20T13:36:29.230Z,99679.47
2023-02-20T13:41:21.006Z,99686.50
2023-02-20T13:46:17.958Z,99685.94
2023-02-20T13:51:15.805Z,99679.69
2023-02-20T13:56:42.139Z,99671.13
2023-02-20T14:02:17.690Z,99677.53
2023-02-20T14:07:09.366Z,99662.63
2023-02-20T14:12:13.639Z,99663.44
2023-02-20T14:17:08.725Z,99661.09
2023-02-20T14:22:25.167Z,99643.81
2023-02-20T14:27:28.314Z,99641.44
2023-02-20T14:32:20.213Z,99632.81
2023-02-20T14:37:35.288Z,99638.97
2023-02-20T14:42:27.030Z,99640.84
2023-02-20T14:47:18.748Z,99624.16
2023-02-20T14:52:10.302Z,99640.13
2023-02-20T14:57:04.880Z,99622.97
2023-02-20T15:01:59.458Z,99630.78
2023-02-20T15:06:53.868Z,99622.22
2023-02-20T15:11:59.478Z,99631.72
2023-02-20T15:17:25.162Z,99629.69
2023-02-20T15:22:26.027Z,99621.03
2023-02-20T15:27:23.320Z,99621.97
2023-02-20T15:32:20.529Z,99623.13
2023-02-20T15:37:18.925Z,99623.59
2023-02-20T15:42:15.014Z,99623.72
2023-02-20T15:47:07.838Z,99613.00
2023-02-20T15:52:09.022Z,99615.25
2023-02-20T15:57:01.641Z,99617.69
2023-02-20T16:01:53.570Z,99623.31
2023-02-20T16:06:45.781Z,99623.44
2023-02-20T16:11:43.789Z,99623.66
2023-02-20T16:16:35.417Z,99623.66
2023-02-20T16:21:27.624Z,99616.66
2023-02-20T16:26:22.274Z,99624.28
2023-02-20T16:31:14.165Z,99624.03
2023-02-20T16:36:08.894Z,99618.91
2023-02-20T16:41:03.806Z,99610.81
2023-02-20T16:45:55.702Z,99603.66
2023-02-20T16:50:55.719Z,99603.81
2023-02-20T16:55:49.358Z,99597.13
2023-02-20T17:00:55.101Z,99605.63
2023-02-20T17:05:48.323Z,99603.91
2023-02-20T17:10:40.178Z,99607.50
2023-02-20T17:15:32.015Z,99605.06
2023-02-20T17:20:26.237Z,99614.53
2023-02-20T17:25:21.614Z,99624.19
2023-02-20T17:30:14.424Z,99624.44
2023-02-20T17:35:06.696Z,99616.22
2023-02-20T17:39:58.675Z,99639.84
2023-02-20T17:44:51.306Z,99641.31
2023-02-20T17:49:43.432Z,99633.19
2023-02-20T17:54:35.672Z,99636.34
2023-02-20T17:59:27.786Z,99636.59
2023-02-20T18:04:21.347Z,99634.53
2023-02-20T18:09:16.474Z,99651.84
2023-02-20T18:14:08.137Z,99657.28
2023-02-20T18:18:59.975Z,99655.00
2023-02-20T18:23:51.762Z,99661.25
2023-02-20T18:28:44.260Z,99653.75
2023-02-20T18:33:36.172Z,99649.34
2023-02-20T18:38:28.090Z,99652.06
2023-02-20T18:43:19.846Z,99652.06
2023-02-20T18:48:11.794Z,99659.38
2023-02-20T18:53:03.659Z,99660.59
2023-02-20T18:57:58.075Z,99654.94
2023-02-20T19:02:52.474Z,99652.88
2023-02-20T19:07:45.807Z,99652.88
2023-02-20T19:12:38.125Z,99658.50
2023-02-20T19:17:29.998Z,99661.00
2023-02-20T19:22:23.363Z,99656.63
2023-02-20T19:27:15.314Z,99653.31
2023-02-20T19:32:07.874Z,99646.88
2023-02-20T19:37:00.008Z,99654.41
2023-02-20T19:41:51.971Z,99650.66
2023-02-20T19:46:44.240Z,99651.09
2023-02-20T19:51:35.903Z,99665.69
2023-02-20T19:56:27.633Z,99656.09
2023-02-20T20:01:20.372Z,99650.69
2023-02-20T20:06:13.442Z,99646.13
2023-02-20T20:11:06.036Z,99652.16
2023-02-20T20:15:58.325Z,99637.16
2023-02-20T20:20:50.135Z,99641.16
2023-02-20T20:25:43.332Z,99636.53
2023-02-20T20:30:38.944Z,99655.53
2023-02-20T20:35:31.108Z,99654.28
2023-02-20T20:40:26.068Z,99665.13
2023-02-20T20:45:18.251Z,99657.84
2023-02-20T20:50:11.931Z,99664.31
2023-02-20T20:55:04.973Z,99657.41
2023-02-20T20:59:58.651Z,99664.09
2023-02-20T21:04:58.005Z,99663.25
2023-02-20T21:09:59.622Z,99650.53
2023-02-20T21:14:51.404Z,99647.00
2023-02-20T21:19:43.272Z,99643.44
2023-02-20T21:24:36.823Z,99647.00
2023-02-20T21:29:28.492Z,99643.44
2023-02-20T21:34:20.205Z,99637.41
2023-02-20T21:39:11.978Z,99627.81
2023-02-20T21:44:22.562Z,99635.34
2023-02-20T21:49:14.194Z,99630.31
2023-02-20T21:54:06.070Z,99642.44
2023-02-20T21:59:06.201Z,99638.50
2023-02-20T22:03:59.053Z,99624.56
2023-02-20T22:09:09.548Z,99639.53
2023-02-20T22:14:19.879Z,99626.63
2023-02-20T22:19:30.306Z,99633.34
2023-02-20T22:24:40.730Z,99643.09
2023-02-20T22:29:51.431Z,99634.16
2023-02-20T22:35:11.656Z,99631.22
2023-02-20T22:40:25.046Z,99626.47
2023-02-20T22:45:35.595Z,99632.53
2023-02-20T22:50:46.118Z,99628.56
2023-02-20T22:55:56.311Z,99629.63
2023-02-20T23:01:07.025Z,99629.66
2023-02-20T23:06:19.965Z,99625.31
2023-02-20T23:11:30.723Z,99634.72
2023-02-20T23:16:43.218Z,99644.06
2023-02-20T23:21:53.535Z,99635.94
2023-02-20T23:27:04.062Z,99640.31
2023-02-20T23:32:14.779Z,99635.09
2023-02-20T23:37:25.941Z,99630.94
2023-02-20T23:42:37.926Z,99636.19
2023-02-20T23:47:48.424Z,99635.34
2023-02-20T23:53:01.613Z,99641.81
2023-02-20T23:58:11.896Z,99642.22
